Flight Track Log - Related Links

Times and Time Zones

All times are in EDT time to prevent confusion due to time zone crossing. See the EGF4269 flight status page for this flight to view local times or setup timezone preferences in your user account.

Time Position Orientation Groundspeed Altitude Reporting Facility
EDT Latitude Longitude Course Direction KTS MPH feet Rate Location/Type
Sat 12:51:50 AM 42.0000 -87.9333 83° East 168 193 2,300  Level Chicago TRACON
Sat 12:52:50 AM 42.0500 -87.8667 45° Northeast 216 249 4,400 2,330 Climbing Chicago TRACON
Sat 12:55:16 AM 42.0794 -87.6364 80° East 282 325 10,300 2,029 Climbing Chicago Center
Sat 12:56:17 AM 42.0864 -87.5153 86° East 313 360 11,400 1,041 Climbing Chicago Center
Sat 12:57:00 AM 42.0450 -87.4224 83° East  Level FlightAware Approximate
Sat 12:57:17 AM 42.0942 -87.3783 86° East 353 406 12,400  Level Chicago Center
Sat 12:58:18 AM 42.1022 -87.2317 86° East 387 445 13,300 893 Climbing Chicago Center
Sat 12:59:18 AM 42.1086 -87.1053 86° East 346 398 14,200 843 Climbing Chicago Center
Sat 01:00:19 AM 42.1336 -86.9928 73° East 315 362 15,000 397 Climbing Chicago Center
Sat 01:01:19 AM 42.1650 -86.8725 71° East 333 383 15,000 -450 Level Chicago Center
Sat 01:02:19 AM 42.1942 -86.7525 72° East 335 386 14,100 -1,488 Descending Chicago Center
Sat 01:03:20 AM 42.2275 -86.6325 69° East 323 372 12,000 -1,884 Descending Chicago Center
Sat 01:04:20 AM 42.2597 -86.5225 68° East 318 366 10,300 -1,388 Descending Chicago Center
Sat 01:05:21 AM 42.2886 -86.4214 69° East 296 341 9,200 -1,140 Descending Chicago Center
Sat 01:06:21 AM 42.3139 -86.3286 70° East 284 327 8,000 -1,190 Descending Chicago Center
Sat 01:07:22 AM 42.3419 -86.2269 69° East 289 333 6,800 -1,240 Descending Chicago Center
Sat 01:08:22 AM 42.3672 -86.1344 70° East 275 316 5,500 -1,240 Descending Chicago Center
Sat 01:09:23 AM 42.3908 -86.0461 70° East 259 298 4,300 -744 Descending Chicago Center
Sat 01:10:23 AM 42.4128 -85.9631 70° East 244 281 4,000 -545 Descending Chicago Center
Sat 01:11:24 AM 42.4275 -85.8697 78° East 255 293 3,200 -446 Descending Chicago Center
Sat 01:12:24 AM 42.4378 -85.7781 81° East 253 291 3,100 -50 Descending Chicago Center
Sat 01:13:24 AM 42.4500 -85.6669 81° East 251 289 3,100 -50 Level Chicago Center
Sat 01:14:25 AM 42.4344 -85.5961 107° East 233 268 3,000 -99 Descending Chicago Center
Sat 01:15:25 AM 42.3800 -85.5806 168° South 207 238 2,900 -50 Descending Chicago Center
Sat 01:16:26 AM 42.3331 -85.5703 171° South 176 203 2,900 -397 Level Chicago Center
Sat 01:17:26 AM 42.2933 -85.5619 171° South 150 173 2,100 -700 Descending Chicago Center
Sat 01:18:26 AM 42.2553 -85.5544 172° South 144 166 1,500 -600 Descending Chicago Center

Login

Don't have an account? Register now (free) for customized features, flight alerts, and more!